sensor_id;sensor_type;location;lat;lon;timestamp;P1;durP1;ratioP1;P2;durP2;ratioP2
11835;SDS011;5977;51.972;7.640;2023-02-23T00:01:36;146.53;;;47.20;;
11835;SDS011;5977;51.972;7.640;2023-02-23T00:04:07;146.83;;;47.20;;
11835;SDS011;5977;51.972;7.640;2023-02-23T00:06:35;146.80;;;47.23;;
11835;SDS011;5977;51.972;7.640;2023-02-23T00:09:04;147.03;;;47.27;;
11835;SDS011;5977;51.972;7.640;2023-02-23T00:11:39;146.87;;;47.40;;
11835;SDS011;5977;51.972;7.640;2023-02-23T00:14:07;146.77;;;47.23;;
11835;SDS011;5977;51.972;7.640;2023-02-23T00:16:35;147.20;;;47.23;;
11835;SDS011;5977;51.972;7.640;2023-02-23T00:19:03;146.83;;;47.23;;
11835;SDS011;5977;51.972;7.640;2023-02-23T00:21:34;147.00;;;47.33;;
11835;SDS011;5977;51.972;7.640;2023-02-23T00:24:03;147.10;;;47.27;;
11835;SDS011;5977;51.972;7.640;2023-02-23T00:26:34;147.27;;;47.40;;
11835;SDS011;5977;51.972;7.640;2023-02-23T00:29:05;146.80;;;47.27;;
11835;SDS011;5977;51.972;7.640;2023-02-23T00:31:34;146.67;;;47.17;;
11835;SDS011;5977;51.972;7.640;2023-02-23T00:34:04;147.00;;;47.27;;
11835;SDS011;5977;51.972;7.640;2023-02-23T00:36:33;147.07;;;47.30;;
11835;SDS011;5977;51.972;7.640;2023-02-23T00:39:04;146.73;;;47.17;;
11835;SDS011;5977;51.972;7.640;2023-02-23T00:41:43;147.10;;;47.27;;
11835;SDS011;5977;51.972;7.640;2023-02-23T00:44:12;147.10;;;47.40;;
11835;SDS011;5977;51.972;7.640;2023-02-23T00:46:41;147.17;;;47.33;;
11835;SDS011;5977;51.972;7.640;2023-02-23T00:49:14;147.10;;;47.37;;
11835;SDS011;5977;51.972;7.640;2023-02-23T00:51:43;146.60;;;47.27;;
11835;SDS011;5977;51.972;7.640;2023-02-23T00:54:12;147.30;;;47.40;;
11835;SDS011;5977;51.972;7.640;2023-02-23T00:56:41;146.40;;;47.10;;
11835;SDS011;5977;51.972;7.640;2023-02-23T00:59:09;146.67;;;47.13;;
11835;SDS011;5977;51.972;7.640;2023-02-23T01:01:38;147.10;;;47.37;;
11835;SDS011;5977;51.972;7.640;2023-02-23T01:04:08;146.50;;;47.23;;
11835;SDS011;5977;51.972;7.640;2023-02-23T01:06:36;146.57;;;47.13;;
11835;SDS011;5977;51.972;7.640;2023-02-23T01:09:07;146.63;;;47.20;;
11835;SDS011;5977;51.972;7.640;2023-02-23T01:11:37;146.20;;;47.07;;
11835;SDS011;5977;51.972;7.640;2023-02-23T01:14:06;146.07;;;47.07;;
11835;SDS011;5977;51.972;7.640;2023-02-23T01:16:36;146.47;;;47.13;;
11835;SDS011;5977;51.972;7.640;2023-02-23T01:19:04;146.20;;;47.10;;
11835;SDS011;5977;51.972;7.640;2023-02-23T01:21:33;146.13;;;47.10;;
11835;SDS011;5977;51.972;7.640;2023-02-23T01:24:02;147.13;;;47.60;;
11835;SDS011;5977;51.972;7.640;2023-02-23T01:26:35;146.97;;;47.23;;
11835;SDS011;5977;51.972;7.640;2023-02-23T01:29:06;145.90;;;47.00;;
11835;SDS011;5977;51.972;7.640;2023-02-23T01:31:36;146.07;;;46.93;;
11835;SDS011;5977;51.972;7.640;2023-02-23T01:34:06;146.97;;;47.30;;
11835;SDS011;5977;51.972;7.640;2023-02-23T01:36:37;146.17;;;46.90;;
11835;SDS011;5977;51.972;7.640;2023-02-23T01:39:08;146.13;;;47.03;;
11835;SDS011;5977;51.972;7.640;2023-02-23T01:41:41;146.40;;;47.13;;
11835;SDS011;5977;51.972;7.640;2023-02-23T01:47:12;146.40;;;47.17;;
11835;SDS011;5977;51.972;7.640;2023-02-23T01:49:40;146.43;;;47.23;;
11835;SDS011;5977;51.972;7.640;2023-02-23T01:52:09;145.83;;;47.10;;
11835;SDS011;5977;51.972;7.640;2023-02-23T01:54:40;146.73;;;47.20;;
11835;SDS011;5977;51.972;7.640;2023-02-23T01:57:17;145.67;;;46.83;;
11835;SDS011;5977;51.972;7.640;2023-02-23T01:59:50;145.83;;;46.97;;
11835;SDS011;5977;51.972;7.640;2023-02-23T02:02:21;146.00;;;47.07;;
11835;SDS011;5977;51.972;7.640;2023-02-23T02:04:58;146.23;;;47.03;;
11835;SDS011;5977;51.972;7.640;2023-02-23T02:07:27;147.00;;;47.33;;
11835;SDS011;5977;51.972;7.640;2023-02-23T02:09:57;146.33;;;47.23;;
11835;SDS011;5977;51.972;7.640;2023-02-23T02:12:44;146.80;;;47.27;;
11835;SDS011;5977;51.972;7.640;2023-02-23T02:15:17;146.50;;;47.27;;
11835;SDS011;5977;51.972;7.640;2023-02-23T02:17:48;146.03;;;46.93;;
11835;SDS011;5977;51.972;7.640;2023-02-23T02:20:28;146.13;;;47.00;;
11835;SDS011;5977;51.972;7.640;2023-02-23T02:23:29;146.03;;;47.03;;
11835;SDS011;5977;51.972;7.640;2023-02-23T02:26:36;145.97;;;47.03;;
11835;SDS011;5977;51.972;7.640;2023-02-23T02:29:24;146.30;;;47.17;;
11835;SDS011;5977;51.972;7.640;2023-02-23T02:32:24;145.83;;;47.20;;
11835;SDS011;5977;51.972;7.640;2023-02-23T02:35:28;145.83;;;47.00;;
11835;SDS011;5977;51.972;7.640;2023-02-23T02:38:17;145.60;;;46.97;;
11835;SDS011;5977;51.972;7.640;2023-02-23T02:40:53;145.23;;;46.70;;
11835;SDS011;5977;51.972;7.640;2023-02-23T02:43:30;145.30;;;46.80;;
11835;SDS011;5977;51.972;7.640;2023-02-23T02:46:07;145.63;;;46.93;;
11835;SDS011;5977;51.972;7.640;2023-02-23T02:48:40;145.57;;;47.03;;
11835;SDS011;5977;51.972;7.640;2023-02-23T02:51:18;145.47;;;46.80;;
11835;SDS011;5977;51.972;7.640;2023-02-23T02:53:53;145.53;;;46.90;;
11835;SDS011;5977;51.972;7.640;2023-02-23T02:56:32;145.13;;;46.70;;
11835;SDS011;5977;51.972;7.640;2023-02-23T02:59:06;145.23;;;46.77;;
11835;SDS011;5977;51.972;7.640;2023-02-23T03:01:53;144.73;;;46.63;;
11835;SDS011;5977;51.972;7.640;2023-02-23T03:04:39;145.33;;;47.00;;
11835;SDS011;5977;51.972;7.640;2023-02-23T03:07:25;145.43;;;46.93;;
11835;SDS011;5977;51.972;7.640;2023-02-23T03:10:17;145.50;;;47.00;;
11835;SDS011;5977;51.972;7.640;2023-02-23T03:13:16;145.80;;;47.07;;
11835;SDS011;5977;51.972;7.640;2023-02-23T03:16:11;144.80;;;46.70;;
11835;SDS011;5977;51.972;7.640;2023-02-23T03:19:07;145.03;;;46.87;;
11835;SDS011;5977;51.972;7.640;2023-02-23T03:22:00;145.57;;;47.00;;
11835;SDS011;5977;51.972;7.640;2023-02-23T03:24:59;145.73;;;47.00;;
11835;SDS011;5977;51.972;7.640;2023-02-23T03:27:52;145.03;;;46.73;;
11835;SDS011;5977;51.972;7.640;2023-02-23T03:30:44;144.57;;;46.67;;
11835;SDS011;5977;51.972;7.640;2023-02-23T03:33:37;145.43;;;46.90;;
11835;SDS011;5977;51.972;7.640;2023-02-23T03:36:27;144.80;;;46.70;;
11835;SDS011;5977;51.972;7.640;2023-02-23T03:39:20;145.30;;;46.97;;
11835;SDS011;5977;51.972;7.640;2023-02-23T03:42:14;145.23;;;46.87;;
11835;SDS011;5977;51.972;7.640;2023-02-23T03:45:05;145.07;;;46.90;;
11835;SDS011;5977;51.972;7.640;2023-02-23T03:47:55;145.20;;;46.80;;
11835;SDS011;5977;51.972;7.640;2023-02-23T03:50:44;144.50;;;46.63;;
11835;SDS011;5977;51.972;7.640;2023-02-23T03:53:34;145.00;;;46.80;;
11835;SDS011;5977;51.972;7.640;2023-02-23T03:56:26;145.00;;;46.80;;
11835;SDS011;5977;51.972;7.640;2023-02-23T03:59:15;144.63;;;46.60;;
11835;SDS011;5977;51.972;7.640;2023-02-23T04:02:05;145.30;;;46.87;;
11835;SDS011;5977;51.972;7.640;2023-02-23T04:04:52;145.33;;;46.97;;
11835;SDS011;5977;51.972;7.640;2023-02-23T04:07:40;144.70;;;46.63;;
11835;SDS011;5977;51.972;7.640;2023-02-23T04:10:27;144.97;;;46.90;;
11835;SDS011;5977;51.972;7.640;2023-02-23T04:13:16;144.43;;;46.57;;
11835;SDS011;5977;51.972;7.640;2023-02-23T04:15:47;144.17;;;46.43;;
11835;SDS011;5977;51.972;7.640;2023-02-23T04:18:19;144.97;;;46.90;;
11835;SDS011;5977;51.972;7.640;2023-02-23T04:20:49;144.90;;;46.67;;
11835;SDS011;5977;51.972;7.640;2023-02-23T04:23:17;144.93;;;46.67;;
11835;SDS011;5977;51.972;7.640;2023-02-23T04:25:48;145.23;;;46.90;;
11835;SDS011;5977;51.972;7.640;2023-02-23T04:28:16;144.87;;;46.73;;
11835;SDS011;5977;51.972;7.640;2023-02-23T04:30:44;145.07;;;46.77;;
11835;SDS011;5977;51.972;7.640;2023-02-23T04:33:12;144.37;;;46.57;;
11835;SDS011;5977;51.972;7.640;2023-02-23T04:35:41;145.20;;;46.87;;
11835;SDS011;5977;51.972;7.640;2023-02-23T04:38:09;145.17;;;46.77;;
11835;SDS011;5977;51.972;7.640;2023-02-23T04:40:37;144.57;;;46.77;;
11835;SDS011;5977;51.972;7.640;2023-02-23T04:43:05;145.17;;;46.97;;
11835;SDS011;5977;51.972;7.640;2023-02-23T04:45:33;145.03;;;46.90;;
11835;SDS011;5977;51.972;7.640;2023-02-23T04:48:01;145.10;;;46.87;;
11835;SDS011;5977;51.972;7.640;2023-02-23T04:50:29;144.60;;;46.57;;
11835;SDS011;5977;51.972;7.640;2023-02-23T04:52:59;144.50;;;46.70;;
11835;SDS011;5977;51.972;7.640;2023-02-23T04:55:27;144.97;;;46.80;;
11835;SDS011;5977;51.972;7.640;2023-02-23T04:57:55;144.70;;;46.80;;
11835;SDS011;5977;51.972;7.640;2023-02-23T05:00:25;145.33;;;46.87;;
11835;SDS011;5977;51.972;7.640;2023-02-23T05:02:54;145.07;;;46.90;;
11835;SDS011;5977;51.972;7.640;2023-02-23T05:05:22;144.90;;;46.80;;
11835;SDS011;5977;51.972;7.640;2023-02-23T05:07:50;144.60;;;46.70;;
11835;SDS011;5977;51.972;7.640;2023-02-23T05:10:20;144.77;;;46.57;;
11835;SDS011;5977;51.972;7.640;2023-02-23T05:12:48;144.97;;;46.80;;
11835;SDS011;5977;51.972;7.640;2023-02-23T05:15:16;145.40;;;47.00;;
11835;SDS011;5977;51.972;7.640;2023-02-23T05:17:44;144.27;;;46.60;;
11835;SDS011;5977;51.972;7.640;2023-02-23T05:20:13;144.93;;;46.93;;
11835;SDS011;5977;51.972;7.640;2023-02-23T05:22:41;144.83;;;46.70;;
11835;SDS011;5977;51.972;7.640;2023-02-23T05:25:09;144.53;;;46.67;;
11835;SDS011;5977;51.972;7.640;2023-02-23T05:27:38;144.20;;;46.53;;
11835;SDS011;5977;51.972;7.640;2023-02-23T05:30:07;144.87;;;46.77;;
11835;SDS011;5977;51.972;7.640;2023-02-23T05:32:36;144.37;;;46.60;;
11835;SDS011;5977;51.972;7.640;2023-02-23T05:35:04;145.20;;;46.97;;
11835;SDS011;5977;51.972;7.640;2023-02-23T05:37:33;145.60;;;47.07;;
11835;SDS011;5977;51.972;7.640;2023-02-23T05:40:01;144.97;;;46.90;;
11835;SDS011;5977;51.972;7.640;2023-02-23T05:42:29;145.07;;;46.90;;
11835;SDS011;5977;51.972;7.640;2023-02-23T05:44:58;144.87;;;46.83;;
11835;SDS011;5977;51.972;7.640;2023-02-23T05:47:26;145.30;;;46.93;;
11835;SDS011;5977;51.972;7.640;2023-02-23T05:49:55;145.03;;;46.70;;
11835;SDS011;5977;51.972;7.640;2023-02-23T05:52:22;145.27;;;47.03;;
11835;SDS011;5977;51.972;7.640;2023-02-23T05:54:50;144.80;;;46.80;;
11835;SDS011;5977;51.972;7.640;2023-02-23T05:57:18;145.60;;;47.20;;
11835;SDS011;5977;51.972;7.640;2023-02-23T05:59:47;144.80;;;46.70;;
11835;SDS011;5977;51.972;7.640;2023-02-23T06:02:16;144.97;;;46.67;;
11835;SDS011;5977;51.972;7.640;2023-02-23T06:04:44;145.03;;;46.90;;
11835;SDS011;5977;51.972;7.640;2023-02-23T06:07:12;144.77;;;46.80;;
11835;SDS011;5977;51.972;7.640;2023-02-23T06:09:41;144.90;;;46.83;;
11835;SDS011;5977;51.972;7.640;2023-02-23T06:12:10;145.03;;;46.70;;
11835;SDS011;5977;51.972;7.640;2023-02-23T06:14:37;144.87;;;46.90;;
11835;SDS011;5977;51.972;7.640;2023-02-23T06:17:05;144.63;;;46.67;;
11835;SDS011;5977;51.972;7.640;2023-02-23T06:19:35;145.17;;;46.80;;
11835;SDS011;5977;51.972;7.640;2023-02-23T06:22:03;145.57;;;47.10;;
11835;SDS011;5977;51.972;7.640;2023-02-23T06:24:31;145.53;;;47.07;;
11835;SDS011;5977;51.972;7.640;2023-02-23T06:26:59;144.67;;;46.67;;
11835;SDS011;5977;51.972;7.640;2023-02-23T06:29:28;145.20;;;46.83;;
11835;SDS011;5977;51.972;7.640;2023-02-23T06:31:55;145.63;;;47.10;;
11835;SDS011;5977;51.972;7.640;2023-02-23T06:34:26;145.47;;;47.00;;
11835;SDS011;5977;51.972;7.640;2023-02-23T06:36:55;145.33;;;46.93;;
11835;SDS011;5977;51.972;7.640;2023-02-23T06:39:23;145.10;;;46.83;;
11835;SDS011;5977;51.972;7.640;2023-02-23T06:41:51;145.13;;;46.87;;
11835;SDS011;5977;51.972;7.640;2023-02-23T06:44:19;144.67;;;46.63;;
11835;SDS011;5977;51.972;7.640;2023-02-23T06:46:47;144.97;;;46.87;;
11835;SDS011;5977;51.972;7.640;2023-02-23T06:49:15;144.57;;;46.70;;
11835;SDS011;5977;51.972;7.640;2023-02-23T06:51:43;145.07;;;46.77;;
11835;SDS011;5977;51.972;7.640;2023-02-23T06:54:12;145.03;;;47.00;;
11835;SDS011;5977;51.972;7.640;2023-02-23T06:56:41;145.07;;;46.87;;
11835;SDS011;5977;51.972;7.640;2023-02-23T06:59:09;145.07;;;46.97;;
11835;SDS011;5977;51.972;7.640;2023-02-23T07:01:37;144.80;;;46.80;;
11835;SDS011;5977;51.972;7.640;2023-02-23T07:04:05;144.90;;;46.80;;
11835;SDS011;5977;51.972;7.640;2023-02-23T07:06:33;145.30;;;46.97;;
11835;SDS011;5977;51.972;7.640;2023-02-23T07:09:01;144.97;;;46.87;;
11835;SDS011;5977;51.972;7.640;2023-02-23T07:11:30;144.97;;;46.90;;
11835;SDS011;5977;51.972;7.640;2023-02-23T07:13:58;145.47;;;47.07;;
11835;SDS011;5977;51.972;7.640;2023-02-23T07:16:27;144.50;;;46.70;;
11835;SDS011;5977;51.972;7.640;2023-02-23T07:18:55;145.50;;;47.13;;
11835;SDS011;5977;51.972;7.640;2023-02-23T07:21:23;145.63;;;47.03;;
11835;SDS011;5977;51.972;7.640;2023-02-23T07:23:51;144.47;;;46.47;;
11835;SDS011;5977;51.972;7.640;2023-02-23T07:26:19;145.00;;;46.83;;
11835;SDS011;5977;51.972;7.640;2023-02-23T07:28:48;145.33;;;47.00;;
11835;SDS011;5977;51.972;7.640;2023-02-23T07:31:19;144.80;;;46.73;;
11835;SDS011;5977;51.972;7.640;2023-02-23T07:33:47;145.43;;;47.00;;
11835;SDS011;5977;51.972;7.640;2023-02-23T07:36:17;144.83;;;46.83;;
11835;SDS011;5977;51.972;7.640;2023-02-23T07:38:45;144.60;;;46.70;;
11835;SDS011;5977;51.972;7.640;2023-02-23T07:41:13;145.37;;;47.00;;
11835;SDS011;5977;51.972;7.640;2023-02-23T07:43:41;144.67;;;46.80;;
11835;SDS011;5977;51.972;7.640;2023-02-23T07:46:10;144.60;;;46.80;;
11835;SDS011;5977;51.972;7.640;2023-02-23T07:48:40;144.53;;;46.73;;
11835;SDS011;5977;51.972;7.640;2023-02-23T07:51:10;144.73;;;46.73;;
11835;SDS011;5977;51.972;7.640;2023-02-23T07:53:40;145.37;;;47.10;;
11835;SDS011;5977;51.972;7.640;2023-02-23T07:56:10;144.73;;;46.87;;
11835;SDS011;5977;51.972;7.640;2023-02-23T07:58:38;144.63;;;46.67;;
11835;SDS011;5977;51.972;7.640;2023-02-23T08:01:08;144.07;;;46.53;;
11835;SDS011;5977;51.972;7.640;2023-02-23T08:03:37;145.17;;;46.97;;
11835;SDS011;5977;51.972;7.640;2023-02-23T08:06:05;145.07;;;47.03;;
11835;SDS011;5977;51.972;7.640;2023-02-23T08:08:33;144.37;;;46.50;;
11835;SDS011;5977;51.972;7.640;2023-02-23T08:11:02;144.87;;;46.80;;
11835;SDS011;5977;51.972;7.640;2023-02-23T08:13:31;144.47;;;46.70;;
11835;SDS011;5977;51.972;7.640;2023-02-23T08:15:59;144.53;;;46.70;;
11835;SDS011;5977;51.972;7.640;2023-02-23T08:18:27;144.53;;;46.67;;
11835;SDS011;5977;51.972;7.640;2023-02-23T08:20:59;144.30;;;46.50;;
11835;SDS011;5977;51.972;7.640;2023-02-23T08:23:29;145.27;;;47.00;;
11835;SDS011;5977;51.972;7.640;2023-02-23T08:25:57;144.83;;;46.80;;
11835;SDS011;5977;51.972;7.640;2023-02-23T08:28:25;144.33;;;46.67;;
11835;SDS011;5977;51.972;7.640;2023-02-23T08:30:53;144.70;;;46.70;;
11835;SDS011;5977;51.972;7.640;2023-02-23T08:33:22;144.50;;;46.70;;
11835;SDS011;5977;51.972;7.640;2023-02-23T08:35:50;144.87;;;46.87;;
11835;SDS011;5977;51.972;7.640;2023-02-23T08:38:20;144.83;;;46.93;;
11835;SDS011;5977;51.972;7.640;2023-02-23T08:40:47;145.27;;;47.03;;
11835;SDS011;5977;51.972;7.640;2023-02-23T08:43:15;144.60;;;46.67;;
11835;SDS011;5977;51.972;7.640;2023-02-23T08:45:43;144.20;;;46.40;;
11835;SDS011;5977;51.972;7.640;2023-02-23T08:48:11;144.43;;;46.70;;
11835;SDS011;5977;51.972;7.640;2023-02-23T08:50:39;145.40;;;46.90;;
11835;SDS011;5977;51.972;7.640;2023-02-23T08:53:07;145.27;;;46.97;;
11835;SDS011;5977;51.972;7.640;2023-02-23T08:55:37;145.30;;;46.93;;
11835;SDS011;5977;51.972;7.640;2023-02-23T08:58:06;145.37;;;47.00;;
11835;SDS011;5977;51.972;7.640;2023-02-23T09:00:35;144.97;;;46.87;;
11835;SDS011;5977;51.972;7.640;2023-02-23T09:03:04;145.00;;;47.00;;
11835;SDS011;5977;51.972;7.640;2023-02-23T09:05:35;145.27;;;46.97;;
11835;SDS011;5977;51.972;7.640;2023-02-23T09:08:04;145.57;;;47.07;;
11835;SDS011;5977;51.972;7.640;2023-02-23T09:10:32;145.67;;;47.10;;
11835;SDS011;5977;51.972;7.640;2023-02-23T09:13:02;145.60;;;47.23;;
11835;SDS011;5977;51.972;7.640;2023-02-23T09:15:30;145.07;;;46.77;;
11835;SDS011;5977;51.972;7.640;2023-02-23T09:17:59;146.00;;;47.20;;
11835;SDS011;5977;51.972;7.640;2023-02-23T09:20:27;145.03;;;46.90;;
11835;SDS011;5977;51.972;7.640;2023-02-23T09:22:55;145.63;;;47.10;;
11835;SDS011;5977;51.972;7.640;2023-02-23T09:25:23;144.87;;;46.77;;
11835;SDS011;5977;51.972;7.640;2023-02-23T09:27:52;145.53;;;47.10;;
11835;SDS011;5977;51.972;7.640;2023-02-23T09:30:24;145.50;;;47.20;;
11835;SDS011;5977;51.972;7.640;2023-02-23T09:32:53;145.50;;;47.13;;
11835;SDS011;5977;51.972;7.640;2023-02-23T09:35:23;145.07;;;46.97;;
11835;SDS011;5977;51.972;7.640;2023-02-23T09:37:52;144.77;;;46.70;;
11835;SDS011;5977;51.972;7.640;2023-02-23T09:40:23;145.37;;;47.00;;
11835;SDS011;5977;51.972;7.640;2023-02-23T09:42:57;146.00;;;47.20;;
11835;SDS011;5977;51.972;7.640;2023-02-23T09:45:32;145.37;;;47.00;;
11835;SDS011;5977;51.972;7.640;2023-02-23T09:48:08;145.17;;;46.83;;
11835;SDS011;5977;51.972;7.640;2023-02-23T09:50:39;144.97;;;46.83;;
11835;SDS011;5977;51.972;7.640;2023-02-23T09:53:19;145.00;;;46.80;;
11835;SDS011;5977;51.972;7.640;2023-02-23T09:55:53;145.60;;;47.10;;
11835;SDS011;5977;51.972;7.640;2023-02-23T09:58:23;145.63;;;47.10;;
11835;SDS011;5977;51.972;7.640;2023-02-23T10:01:06;144.93;;;46.83;;
11835;SDS011;5977;51.972;7.640;2023-02-23T10:04:05;144.37;;;46.60;;
11835;SDS011;5977;51.972;7.640;2023-02-23T10:06:38;145.30;;;47.00;;
11835;SDS011;5977;51.972;7.640;2023-02-23T10:09:13;145.97;;;47.20;;
11835;SDS011;5977;51.972;7.640;2023-02-23T10:11:50;145.77;;;47.23;;
11835;SDS011;5977;51.972;7.640;2023-02-23T10:14:39;145.80;;;47.03;;
11835;SDS011;5977;51.972;7.640;2023-02-23T10:17:28;145.23;;;46.90;;
11835;SDS011;5977;51.972;7.640;2023-02-23T10:20:03;145.63;;;47.07;;
11835;SDS011;5977;51.972;7.640;2023-02-23T10:22:39;145.40;;;46.93;;
11835;SDS011;5977;51.972;7.640;2023-02-23T10:25:09;145.40;;;46.97;;
11835;SDS011;5977;51.972;7.640;2023-02-23T10:27:39;145.73;;;47.13;;
11835;SDS011;5977;51.972;7.640;2023-02-23T10:30:15;145.03;;;46.97;;
11835;SDS011;5977;51.972;7.640;2023-02-23T10:32:48;145.50;;;46.97;;
11835;SDS011;5977;51.972;7.640;2023-02-23T10:35:20;145.63;;;47.07;;
11835;SDS011;5977;51.972;7.640;2023-02-23T10:37:50;145.70;;;47.10;;
11835;SDS011;5977;51.972;7.640;2023-02-23T10:40:20;145.37;;;46.93;;
11835;SDS011;5977;51.972;7.640;2023-02-23T10:42:50;145.23;;;46.90;;
11835;SDS011;5977;51.972;7.640;2023-02-23T10:45:19;144.77;;;46.70;;
11835;SDS011;5977;51.972;7.640;2023-02-23T10:47:52;145.10;;;46.83;;
11835;SDS011;5977;51.972;7.640;2023-02-23T10:50:24;145.97;;;47.20;;
11835;SDS011;5977;51.972;7.640;2023-02-23T10:52:55;145.27;;;46.87;;
11835;SDS011;5977;51.972;7.640;2023-02-23T10:55:26;145.30;;;46.83;;
11835;SDS011;5977;51.972;7.640;2023-02-23T10:58:03;145.67;;;47.10;;
11835;SDS011;5977;51.972;7.640;2023-02-23T11:00:49;145.20;;;46.97;;
11835;SDS011;5977;51.972;7.640;2023-02-23T11:03:23;144.83;;;46.80;;
11835;SDS011;5977;51.972;7.640;2023-02-23T11:05:54;145.57;;;47.10;;
11835;SDS011;5977;51.972;7.640;2023-02-23T11:08:23;145.20;;;47.00;;
11835;SDS011;5977;51.972;7.640;2023-02-23T11:10:58;144.37;;;46.47;;
11835;SDS011;5977;51.972;7.640;2023-02-23T11:13:33;145.10;;;47.07;;
11835;SDS011;5977;51.972;7.640;2023-02-23T11:16:04;145.77;;;47.20;;
11835;SDS011;5977;51.972;7.640;2023-02-23T11:18:38;145.17;;;46.93;;
11835;SDS011;5977;51.972;7.640;2023-02-23T11:21:08;144.73;;;46.90;;
11835;SDS011;5977;51.972;7.640;2023-02-23T11:23:38;145.30;;;47.10;;
11835;SDS011;5977;51.972;7.640;2023-02-23T11:28:55;144.70;;;46.73;;
11835;SDS011;5977;51.972;7.640;2023-02-23T11:31:29;145.40;;;47.00;;
11835;SDS011;5977;51.972;7.640;2023-02-23T11:34:01;144.93;;;46.83;;
11835;SDS011;5977;51.972;7.640;2023-02-23T11:36:31;145.20;;;47.00;;
11835;SDS011;5977;51.972;7.640;2023-02-23T11:39:06;145.53;;;47.07;;
11835;SDS011;5977;51.972;7.640;2023-02-23T11:41:44;145.37;;;46.87;;
11835;SDS011;5977;51.972;7.640;2023-02-23T11:44:18;145.70;;;47.20;;
11835;SDS011;5977;51.972;7.640;2023-02-23T11:46:48;145.00;;;46.87;;
11835;SDS011;5977;51.972;7.640;2023-02-23T11:49:19;145.30;;;47.00;;
11835;SDS011;5977;51.972;7.640;2023-02-23T11:51:53;145.30;;;46.90;;
11835;SDS011;5977;51.972;7.640;2023-02-23T11:54:22;144.77;;;46.77;;
11835;SDS011;5977;51.972;7.640;2023-02-23T11:56:54;145.17;;;46.90;;
11835;SDS011;5977;51.972;7.640;2023-02-23T11:59:25;144.80;;;46.87;;
11835;SDS011;5977;51.972;7.640;2023-02-23T12:01:58;144.30;;;46.63;;
11835;SDS011;5977;51.972;7.640;2023-02-23T12:04:34;145.30;;;46.93;;
11835;SDS011;5977;51.972;7.640;2023-02-23T12:07:22;145.33;;;47.00;;
11835;SDS011;5977;51.972;7.640;2023-02-23T12:10:01;144.83;;;46.83;;
11835;SDS011;5977;51.972;7.640;2023-02-23T12:12:35;144.97;;;46.80;;
11835;SDS011;5977;51.972;7.640;2023-02-23T12:15:14;144.90;;;47.07;;
11835;SDS011;5977;51.972;7.640;2023-02-23T12:17:51;144.80;;;46.77;;
11835;SDS011;5977;51.972;7.640;2023-02-23T12:20:25;144.37;;;46.67;;
11835;SDS011;5977;51.972;7.640;2023-02-23T12:22:58;145.27;;;46.90;;
11835;SDS011;5977;51.972;7.640;2023-02-23T12:25:32;144.43;;;46.60;;
11835;SDS011;5977;51.972;7.640;2023-02-23T12:28:08;144.87;;;46.77;;
11835;SDS011;5977;51.972;7.640;2023-02-23T12:30:45;144.67;;;46.73;;
11835;SDS011;5977;51.972;7.640;2023-02-23T12:33:18;145.03;;;46.90;;
11835;SDS011;5977;51.972;7.640;2023-02-23T12:35:53;145.17;;;46.87;;
11835;SDS011;5977;51.972;7.640;2023-02-23T12:38:25;144.30;;;46.60;;
11835;SDS011;5977;51.972;7.640;2023-02-23T12:40:59;144.70;;;46.77;;
11835;SDS011;5977;51.972;7.640;2023-02-23T12:43:33;146.07;;;47.20;;
11835;SDS011;5977;51.972;7.640;2023-02-23T12:46:10;145.50;;;47.00;;
11835;SDS011;5977;51.972;7.640;2023-02-23T12:48:44;145.17;;;47.07;;
11835;SDS011;5977;51.972;7.640;2023-02-23T12:51:22;145.87;;;47.17;;
11835;SDS011;5977;51.972;7.640;2023-02-23T12:53:53;144.87;;;46.80;;
11835;SDS011;5977;51.972;7.640;2023-02-23T12:56:24;145.30;;;47.03;;
11835;SDS011;5977;51.972;7.640;2023-02-23T12:59:02;145.13;;;46.93;;
11835;SDS011;5977;51.972;7.640;2023-02-23T13:01:41;145.07;;;46.87;;
11835;SDS011;5977;51.972;7.640;2023-02-23T13:04:23;145.93;;;47.10;;
11835;SDS011;5977;51.972;7.640;2023-02-23T13:07:03;145.67;;;47.00;;
11835;SDS011;5977;51.972;7.640;2023-02-23T13:09:40;145.23;;;46.90;;
11835;SDS011;5977;51.972;7.640;2023-02-23T13:12:17;145.13;;;46.90;;
11835;SDS011;5977;51.972;7.640;2023-02-23T13:14:52;145.47;;;47.03;;
11835;SDS011;5977;51.972;7.640;2023-02-23T13:17:31;145.57;;;46.97;;
11835;SDS011;5977;51.972;7.640;2023-02-23T13:20:06;145.53;;;47.07;;
11835;SDS011;5977;51.972;7.640;2023-02-23T13:22:45;145.53;;;47.03;;
11835;SDS011;5977;51.972;7.640;2023-02-23T13:25:20;145.03;;;46.87;;
11835;SDS011;5977;51.972;7.640;2023-02-23T13:27:58;144.77;;;46.80;;
11835;SDS011;5977;51.972;7.640;2023-02-23T13:30:28;144.90;;;46.83;;
11835;SDS011;5977;51.972;7.640;2023-02-23T13:32:58;145.27;;;46.87;;
11835;SDS011;5977;51.972;7.640;2023-02-23T13:35:32;145.20;;;46.93;;
11835;SDS011;5977;51.972;7.640;2023-02-23T13:38:06;145.53;;;47.07;;
11835;SDS011;5977;51.972;7.640;2023-02-23T13:40:43;145.27;;;46.97;;
11835;SDS011;5977;51.972;7.640;2023-02-23T13:43:17;144.83;;;46.90;;
11835;SDS011;5977;51.972;7.640;2023-02-23T13:45:50;145.10;;;46.83;;
11835;SDS011;5977;51.972;7.640;2023-02-23T13:48:29;144.80;;;46.80;;
11835;SDS011;5977;51.972;7.640;2023-02-23T13:51:23;144.63;;;46.80;;
11835;SDS011;5977;51.972;7.640;2023-02-23T13:54:02;144.27;;;46.60;;
11835;SDS011;5977;51.972;7.640;2023-02-23T13:56:35;144.33;;;46.57;;
11835;SDS011;5977;51.972;7.640;2023-02-23T13:59:08;144.83;;;46.87;;
11835;SDS011;5977;51.972;7.640;2023-02-23T14:01:44;143.63;;;46.33;;
11835;SDS011;5977;51.972;7.640;2023-02-23T14:04:15;144.20;;;46.67;;
11835;SDS011;5977;51.972;7.640;2023-02-23T14:06:51;144.80;;;46.80;;
11835;SDS011;5977;51.972;7.640;2023-02-23T14:09:23;145.13;;;47.00;;
11835;SDS011;5977;51.972;7.640;2023-02-23T14:12:01;145.10;;;46.90;;
11835;SDS011;5977;51.972;7.640;2023-02-23T14:14:42;144.33;;;46.57;;
11835;SDS011;5977;51.972;7.640;2023-02-23T14:20:24;144.97;;;47.00;;
11835;SDS011;5977;51.972;7.640;2023-02-23T14:23:25;144.63;;;46.80;;
11835;SDS011;5977;51.972;7.640;2023-02-23T14:26:14;144.77;;;46.77;;
11835;SDS011;5977;51.972;7.640;2023-02-23T14:28:45;144.77;;;46.83;;
11835;SDS011;5977;51.972;7.640;2023-02-23T14:31:16;144.33;;;46.77;;
11835;SDS011;5977;51.972;7.640;2023-02-23T14:33:49;144.30;;;46.70;;
11835;SDS011;5977;51.972;7.640;2023-02-23T14:36:28;144.37;;;46.67;;
11835;SDS011;5977;51.972;7.640;2023-02-23T14:39:08;144.50;;;46.80;;
11835;SDS011;5977;51.972;7.640;2023-02-23T14:41:44;144.27;;;46.53;;
11835;SDS011;5977;51.972;7.640;2023-02-23T14:44:17;147.30;;;47.53;;
11835;SDS011;5977;51.972;7.640;2023-02-23T14:47:00;150.40;;;48.30;;
11835;SDS011;5977;51.972;7.640;2023-02-23T14:49:30;152.50;;;48.93;;
11835;SDS011;5977;51.972;7.640;2023-02-23T14:52:04;153.97;;;49.47;;
11835;SDS011;5977;51.972;7.640;2023-02-23T14:54:34;154.97;;;49.60;;
11835;SDS011;5977;51.972;7.640;2023-02-23T14:57:05;156.00;;;49.97;;
11835;SDS011;5977;51.972;7.640;2023-02-23T14:59:43;156.33;;;49.87;;
11835;SDS011;5977;51.972;7.640;2023-02-23T15:02:18;157.63;;;50.57;;
11835;SDS011;5977;51.972;7.640;2023-02-23T15:04:47;158.37;;;50.67;;
11835;SDS011;5977;51.972;7.640;2023-02-23T15:07:16;157.97;;;50.67;;